Latest Coastal Weather Observations for Hobart Airport

IDT60701

Issued at 3:52 pm EDT Monday 27 February 2017 (issued every 10 minutes, with the page automatically refreshed every 10 minutes)

About coastal observations | Map of coastal stations | Coastal observations for TAS | Marine services | Other Formats
Station Details ID: 094008 Name: HOBART AIRPORT Lat: -42.83 Lon: 147.50 Height: 4.0 m
Data from the previous 72 hours. | See also: Recent months at Hobart Airport
Date/Time
EDT
Temp
°C
Wind Pressure Rain since
9am
mm
Weather Cloud Vis
km
Sea
Height
m
Swell
Dir  Spd
kts
Gust
kts
hPa Trend Height
m
Period
s
Dir
27/03:30pm 27.1 NNE 10 15 1022.9 - 0.0 - Mostly clear 10 - - - -
27/03:00pm 26.4 NNE 9 15 1023.2 F 0.0 Fine Mostly clear 40 - - - -
27/02:30pm 26.4 NNE 8 10 1023.7 - 0.0 - Mostly clear 10 - - - -
27/02:00pm 25.5 ENE 6 10 1024.0 - 0.0 - Mostly clear 10 - - - -
27/01:30pm 24.9 NE 5 8 1024.4 - 0.0 - Mostly clear 10 - - - -
27/01:00pm 24.7 NE 5 8 1024.8 - 0.0 - Mostly clear 10 - - - -
27/12:30pm 24.2 NE 6 8 1025.1 - 0.0 - Mostly clear 10 - - - -
27/12:00pm 23.1 NNE 6 8 1025.5 F 0.0 Fine Mostly clear 40 - - - -
27/11:30am 21.8 NE 7 10 1025.8 - 0.0 - - 10 - - - -
27/11:00am 21.4 NE 9 12 1026.2 - 0.0 - - 10 - - - -
27/10:30am 20.8 NNE 10 14 1026.4 - 0.0 - - 10 - - - -
27/10:00am 19.5 NNW 8 11 1026.6 - 0.0 - - 10 - - - -
27/09:30am 17.7 NNW 5 8 1026.7 - 0.0 - - 10 - - - -
27/09:00am 16.4 NNE 6 7 1026.8 S 0.0 Fine Mostly clear 40 - - - -
27/08:30am 15.3 NNE 5 6 1026.9 - 0.0 - - 10 - - - -
27/08:00am 12.6 WNW 4 5 1026.9 - 0.0 - - 10 - - - -
27/07:30am 11.6 W 4 5 1026.8 - 0.0 - - 10 - - - -
27/07:00am 11.2 NE 1 6 1026.4 - 0.0 - - 10 - - - -
27/06:30am 11.1 WNW 5 8 1026.2 - 0.0 - - 10 - - - -
27/06:00am 11.2 W 6 7 1026.0 R 0.0 - - 10 - - - -
27/05:30am 12.3 NW 7 8 1025.7 - 0.0 - - 10 - - - -
27/05:00am 12.3 NW 8 9 1025.7 - 0.0 - - 10 - - - -
27/04:30am 11.8 NNW 5 7 1025.7 - 0.0 - - 10 - - - -
27/04:00am 11.9 WNW 6 7 1025.7 - 0.0 - - 10 - - - -
27/03:30am 12.1 NW 3 5 1025.7 - 0.0 - - 10 - - - -
27/03:00am 12.4 NNE 4 4 1025.6 R 0.0 - - 10 - - - -
27/02:30am 12.5 WNW 7 8 1025.6 - 0.0 - - 10 - - - -
27/02:00am 12.8 NW 6 7 1025.7 - 0.0 - - 10 - - - -
27/01:30am 12.7 NW 2 4 1025.8 - 0.0 - - 10 - - - -
27/01:00am 12.2 WNW 1 4 1025.7 - 0.0 - - 10 - - - -
27/12:30am 13.2 CALM 0 0 1025.9 - 0.0 - - 10 - - - -
27/12:00am 13.8 CALM 0 0 1026.0 R 0.0 - - 10 - - - -
 
Date/Time
EDT
Temp
°C
Wind Pressure Rain since
9am
mm
Weather Cloud Vis
km
Sea
Height
m
Swell
Dir  Spd
kts
Gust
kts
hPa Trend Height
m
Period
s
Dir
26/11:30pm 14.8 CALM 0 3 1026.1 - 0.0 - - 10 - - - -
26/11:00pm 15.6 SSW 6 8 1026.1 - 0.0 - - 10 - - - -
26/10:30pm 15.9 SSW 7 10 1026.1 - 0.0 - - 10 - - - -
26/10:00pm 16.2 SSW 7 9 1026.1 - 0.0 - - 10 - - - -
26/09:30pm 16.5 SSW 7 9 1025.8 - 0.0 - - 10 - - - -
26/09:00pm 17.0 SSW 7 9 1025.5 R 0.0 - - 10 - - - -
26/08:30pm 17.6 S 6 8 1025.3 - 0.0 - - 10 - - - -
26/08:00pm 18.4 SE 5 6 1025.0 - 0.0 - - 10 - - - -
26/07:30pm 19.6 SE 7 9 1024.8 - 0.0 - - 10 - - - -
26/07:00pm 20.0 SSE 11 13 1024.4 - 0.0 - - 10 - - - -
26/06:30pm 20.9 SE 9 12 1024.1 - 0.0 - Mostly clear 10 - - - -
26/06:00pm 21.1 SE 11 14 1023.7 F 0.0 Fine Mostly cloudy 40 - - - -
26/05:30pm 20.3 SE 14 18 1023.5 - 0.0 - Mostly clear 10 - - - -
26/05:00pm 21.7 SE 15 18 1023.6 - 0.0 - Mostly clear 10 - - - -
26/04:30pm 21.7 SSE 13 16 1023.7 - 0.0 - Mostly clear 10 - - - -
26/04:00pm 22.1 SE 11 16 1023.8 - 0.0 - Mostly clear 10 - - - -
26/03:30pm 22.7 SE 11 17 1024.0 - 0.0 - Mostly clear 10 - - - -
26/03:00pm 22.5 SE 13 18 1024.1 F 0.0 Fine Partly cloudy 40 - - - -
26/02:30pm 22.2 ESE 10 15 1024.3 - 0.0 - Mostly clear 10 - - - -
26/02:00pm 21.5 SE 12 16 1024.5 - 0.0 - Mostly clear 10 - - - -
26/01:30pm 21.2 SE 6 11 1024.7 - 0.0 - Mostly clear 10 - - - -
26/01:00pm 22.1 W 7 10 1025.1 - 0.0 - Mostly clear 10 - - - -
26/12:30pm 21.6 NW 8 13 1025.4 - 0.0 - Mostly clear 10 - - - -
26/12:00pm 20.1 NNW 8 12 1025.6 F 0.0 Fine Mostly clear 40 - - - -
26/11:30am 19.5 NNW 9 13 1025.7 - 0.0 - Mostly clear 10 - - - -
26/11:00am 18.8 NW 7 10 1026.0 - 0.0 - Mostly clear 10 - - - -
26/10:30am 17.4 NNW 8 10 1026.3 - 0.0 - Mostly clear 10 - - - -
26/10:00am 16.4 NW 10 14 1026.5 - 0.0 - Mostly clear 10 - - - -
26/09:30am 15.4 NW 9 13 1026.4 - 0.0 - - 10 - - - -
26/09:00am 14.2 NNW 8 12 1026.3 R 0.0 Fine Partly cloudy 40 - - - -
26/08:30am 12.4 NW 8 12 1026.3 - 0.0 - - 10 - - - -
26/08:00am 11.8 NNW 8 11 1026.2 - 0.0 - - 10 - - - -
26/07:30am 10.5 NNW 6 8 1025.9 - 0.0 - - 10 - - - -
26/07:00am 9.4 WNW 5 6 1025.7 - 0.0 - - 10 - - - -
26/06:30am 9.6 NNW 8 10 1025.3 - 0.0 - - 10 - - - -
26/06:00am 9.7 NW 9 10 1025.2 F 0.0 Haze Partly cloudy 25 - - - -
26/05:30am 8.9 NNW 9 11 1025.3 - 0.0 - Mostly clear 10 - - - -
26/05:00am 9.2 WNW 9 12 1025.0 - 0.0 - Mostly clear 10 - - - -
26/04:30am 9.4 NW 8 10 1024.9 - 0.0 - Mostly clear 10 - - - -
26/04:00am 9.2 NW 10 14 1025.4 - 0.0 - Mostly clear 10 - - - -
26/03:30am 9.4 NW 7 9 1025.4 - 0.0 - Mostly clear 10 - - - -
26/03:00am 9.5 NNW 7 10 1025.6 F 0.0 Haze Mostly clear 25 - - - -
26/02:30am 10.2 NW 9 10 1026.2 - 0.0 - Mostly clear 10 - - - -
26/02:00am 9.9 NW 6 7 1026.3 - 0.0 - Mostly clear 10 - - - -
26/01:30am 10.8 NW 7 8 1026.4 - 0.0 - Mostly clear 10 - - - -
26/01:00am 10.0 NW 4 5 1026.6 - 0.0 - Mostly clear 10 - - - -
26/12:30am 10.2 CALM 0 0 1026.9 - 0.0 - Mostly clear 10 - - - -
26/12:00am 11.4 CALM 0 0 1027.0 F 0.0 Haze Mostly clear 25 - - - -
 
Date/Time
EDT
Temp
°C
Wind Pressure Rain since
9am
mm
Weather Cloud Vis
km
Sea
Height
m
Swell
Dir  Spd
kts
Gust
kts
hPa Trend Height
m
Period
s
Dir
25/11:30pm 12.1 ENE 4 4 1027.1 - 0.0 - Mostly clear 10 - - - -
25/11:00pm 13.4 ESE 3 4 1027.2 - 0.0 - Mostly cloudy 10 - - - -
25/10:30pm 14.0 ESE 4 6 1027.6 - 0.0 - Mostly cloudy 10 - - - -
25/10:00pm 14.1 E 4 6 1027.7 - 0.0 - Mostly cloudy 10 - - - -
25/09:30pm 14.5 ESE 5 8 1027.6 - 0.0 - Mostly cloudy 10 - - - -
25/09:00pm 14.8 ESE 5 8 1027.1 R 0.0 Haze Mostly cloudy 30 - - - -
25/08:30pm 14.5 ESE 5 8 1026.7 - 0.0 - Mostly clear 10 - - - -
25/08:00pm 14.9 SSE 9 11 1026.4 - 0.0 - Mostly clear 10 - - - -
25/07:30pm 15.0 S 12 16 1026.2 - 0.0 - Mostly clear 10 - - - -
25/07:00pm 15.5 SSE 13 17 1025.9 - 0.0 - Mostly clear 10 - - - -
25/06:30pm 16.1 S 14 18 1025.7 - 0.0 - Mostly clear 10 - - - -
25/06:00pm 16.5 SSE 15 18 1025.4 F 0.0 Fine Mostly clear 40 - - - -
25/05:30pm 16.4 SSE 14 18 1025.4 - 0.0 - Mostly clear 10 - - - -
25/05:00pm 17.1 SSE 14 18 1025.4 - 0.0 - Mostly clear 10 - - - -
25/04:30pm 17.7 SE 14 18 1025.4 - 0.0 - Mostly clear 10 - - - -
25/04:00pm 17.9 SE 14 18 1025.6 - 0.0 - - 10 - - - -
25/03:30pm 18.0 SSE 12 16 1025.6 - 0.0 - - 10 - - - -
25/03:00pm 17.1 SE 12 16 1026.0 R 0.0 Fine Mostly clear 40 - - - -
25/02:30pm 17.6 SE 13 16 1026.5 - 0.0 - - 10 - - - -
25/02:00pm 17.2 SSE 11 16 1026.7 - 0.0 - - 10 - - - -
25/01:30pm 17.0 SE 11 15 1026.7 - 0.0 - - 10 - - - -
25/01:00pm 17.0 SE 11 15 1026.9 - 0.0 - - 10 - - - -
25/12:30pm 16.5 ESE 8 11 1026.9 - 0.0 - Mostly clear 10 - - - -
25/12:00pm 16.3 ESE 5 10 1027.0 F 0.0 Fine Mostly clear 40 - - - -
25/11:30am 16.9 NNE 5 9 1027.2 - 0.0 - Mostly clear 10 - - - -
25/11:00am 16.3 NE 6 8 1027.5 - 0.0 - Mostly clear 10 - - - -
25/10:30am 15.9 NNW 5 8 1027.6 - 0.0 - Mostly clear 10 - - - -
25/10:00am 14.6 NNW 8 12 1027.5 - 0.0 - Mostly clear 10 - - - -
25/09:30am 13.6 NNW 9 13 1027.6 - 0.0 - Mostly clear 10 - - - -
25/09:00am 12.1 NW 9 13 1027.7 R 0.0 Fine Mostly clear 40 - - - -
25/08:30am 11.1 NNW 7 9 1027.4 - 0.0 - - 10 - - - -
25/08:00am 10.0 NW 10 12 1027.2 - 0.0 - Mostly clear 10 - - - -
25/07:30am 9.9 NW 8 10 1027.1 - 0.0 - Mostly clear 10 - - - -
25/07:00am 9.1 NNW 6 9 1026.8 - 0.0 - Mostly clear 10 - - - -
25/06:30am 8.7 NW 8 8 1026.6 - 0.0 - - 10 - - - -
25/06:00am 8.4 WNW 6 7 1026.2 R 0.0 Haze Partly cloudy 30 - - - -
25/05:30am 8.6 WNW 7 9 1026.0 - 0.0 - - 10 - - - -
25/05:00am 9.1 WNW 9 11 1025.8 - 0.0 - - 10 - - - -
25/04:30am 9.5 NW 8 10 1025.7 - 0.0 - - 10 - - - -
25/04:00am 9.6 W 4 6 1025.5 - 0.0 - - 10 - - - -
25/03:30am 9.7 SW 6 7 1025.4 - 0.0 - - 10 - - - -
25/03:00am 10.8 WSW 10 12 1025.4 R 0.0 Haze Mostly clear 30 - - - -
25/02:30am 11.3 S 5 8 1025.6 - 0.0 - - 10 - - - -
25/02:00am 11.9 NNW 4 6 1025.9 - 0.0 - - 10 - - - -
25/01:30am 10.9 S 3 5 1025.8 - 0.0 - - 10 - - - -
25/01:00am 12.0 WNW 4 7 1025.4 - 0.0 - - 10 - - - -
25/12:30am 12.2 SSW 7 10 1025.0 - 0.0 - - 10 - - - -
25/12:00am 12.6 SSW 9 14 1024.8 R 0.0 Fine Mostly clear 35 - - - -
 
Date/Time
EDT
Temp
°C
Wind Pressure Rain since
9am
mm
Weather Cloud Vis
km
Sea
Height
m
Swell
Dir  Spd
kts
Gust
kts
hPa Trend Height
m
Period
s
Dir
24/11:30pm 12.3 S 7 8 1024.8 - 0.0 - - 10 - - - -
24/11:00pm 13.1 SSW 7 12 1024.8 - 0.0 - - 10 - - - -
24/10:30pm 12.6 S 6 8 1024.9 - 0.0 - - 10 - - - -
24/10:00pm 12.7 SSW 7 9 1024.8 - 0.0 - Partly cloudy 10 - - - -
24/09:30pm 13.9 SSW 10 14 1024.5 - 0.0 - Partly cloudy 10 - - - -
24/09:00pm 14.5 SW 11 16 1023.9 R 0.0 Fine Partly cloudy 35 - - - -
24/08:30pm 15.0 SW 9 11 1023.4 - 0.0 - Mostly clear 10 - - - -
24/08:00pm 15.4 SW 10 16 1022.9 - 0.0 - Mostly clear 10 - - - -
24/07:30pm 16.2 SSW 13 19 1022.6 - 0.0 - Mostly clear 10 - - - -
24/07:00pm 16.3 SW 13 17 1022.3 - 0.0 - Mostly clear 10 - - - -
24/06:30pm 16.9 SW 11 18 1022.0 - 0.0 - Mostly clear 10 - - - -
24/06:00pm 17.5 SSW 16 20 1021.5 R 0.0 Distant precip. Mostly cloudy 40 - - - -
24/05:30pm 18.1 SW 16 20 1021.2 - 0.0 - Mostly clear 10 - - - -
24/05:00pm 17.6 SW 18 25 1021.1 - 0.0 - Mostly clear 10 - - - -
24/04:30pm 17.0 SSW 17 22 1020.8 - 0.0 - Mostly clear 10 - - - -
24/04:05pm 17.4 SSW 16 29 1020.5 - 0.0 - Mostly clear 10 - - - -
24/04:00pm 18.1 SW 14 20 1020.5 - 0.0 - Mostly clear 10 - - - -

Other Formats:

Comma delimited format used in spreadsheet applications
http://www.bom.gov.au/fwo/IDT60701/IDT60701.94975.axf

JavaScript Object Notation format (JSON) in row-major order
http://www.bom.gov.au/fwo/IDT60701/IDT60701.94975.json